createdAt,value
2022-12-22T00:02:27.903Z,35.88
2022-12-22T00:05:51.518Z,35.50
2022-12-22T00:09:14.968Z,36.60
2022-12-22T00:12:39.754Z,35.25
2022-12-22T00:16:03.506Z,35.83
2022-12-22T00:19:31.897Z,34.05
2022-12-22T00:22:55.307Z,36.72
2022-12-22T00:26:18.853Z,35.20
2022-12-22T00:29:42.718Z,36.10
2022-12-22T00:33:07.204Z,39.03
2022-12-22T00:36:31.707Z,35.60
2022-12-22T00:39:55.011Z,33.40
2022-12-22T00:43:18.385Z,33.47
2022-12-22T00:46:41.997Z,37.03
2022-12-22T00:50:07.141Z,35.80
2022-12-22T00:53:30.427Z,33.60
2022-12-22T00:56:53.801Z,28.23
2022-12-22T01:00:17.107Z,24.35
2022-12-22T01:03:40.361Z,24.48
2022-12-22T01:07:03.498Z,22.83
2022-12-22T01:10:31.705Z,20.58
2022-12-22T01:13:55.207Z,18.58
2022-12-22T01:17:19.585Z,20.13
2022-12-22T01:20:42.923Z,20.40
2022-12-22T01:24:06.553Z,20.17
2022-12-22T01:27:29.843Z,14.10
2022-12-22T01:30:54.195Z,13.38
2022-12-22T01:34:17.499Z,12.23
2022-12-22T01:37:41.193Z,12.40
2022-12-22T01:41:04.716Z,8.88
2022-12-22T01:44:36.412Z,7.40
2022-12-22T01:47:59.576Z,7.60
2022-12-22T01:51:50.884Z,7.13
2022-12-22T01:55:16.513Z,6.10
2022-12-22T01:58:46.579Z,5.05
2022-12-22T02:02:10.100Z,3.75
2022-12-22T02:05:34.556Z,4.05
2022-12-22T02:09:01.507Z,7.30
2022-12-22T02:12:46.885Z,5.40
2022-12-22T02:16:21.055Z,4.80
2022-12-22T02:20:20.967Z,4.50
2022-12-22T02:24:26.396Z,4.53
2022-12-22T02:27:50.772Z,4.30
2022-12-22T02:31:14.199Z,3.88
2022-12-22T02:34:37.384Z,4.68
2022-12-22T02:38:30.562Z,7.50
2022-12-22T02:42:53.544Z,8.27
2022-12-22T02:46:41.018Z,14.65
2022-12-22T02:50:33.183Z,15.25
2022-12-22T02:53:58.231Z,17.75
2022-12-22T02:57:24.933Z,17.52
2022-12-22T03:00:48.133Z,20.67
2022-12-22T03:04:11.891Z,24.85
2022-12-22T03:07:35.715Z,22.83
2022-12-22T03:10:59.150Z,30.23
2022-12-22T03:14:22.746Z,32.70
2022-12-22T03:17:46.258Z,33.88
2022-12-22T03:21:09.635Z,34.63
2022-12-22T03:24:32.795Z,35.28
2022-12-22T03:27:37.362Z,33.38
2022-12-22T03:30:42.219Z,32.92
2022-12-22T03:33:47.370Z,30.98
2022-12-22T03:36:52.697Z,31.20
2022-12-22T03:39:57.481Z,31.33
2022-12-22T03:43:20.910Z,31.23
2022-12-22T03:46:31.534Z,31.20
2022-12-22T03:49:36.480Z,28.13
2022-12-22T03:52:41.476Z,33.00
2022-12-22T03:55:46.469Z,30.95
2022-12-22T03:58:51.171Z,30.73
2022-12-22T04:01:56.462Z,30.50
2022-12-22T04:05:01.552Z,30.58
2022-12-22T04:08:06.973Z,34.63
2022-12-22T04:11:35.420Z,31.80
2022-12-22T04:14:40.435Z,30.35
2022-12-22T04:17:45.330Z,31.77
2022-12-22T04:20:50.112Z,30.05
2022-12-22T04:23:54.966Z,29.08
2022-12-22T04:26:59.840Z,23.63
2022-12-22T04:30:06.375Z,19.08
2022-12-22T04:33:11.336Z,21.65
2022-12-22T04:36:16.422Z,20.08
2022-12-22T04:39:21.214Z,19.70
2022-12-22T04:42:26.124Z,16.77
2022-12-22T04:45:30.898Z,15.95
2022-12-22T04:48:35.784Z,15.85
2022-12-22T04:51:40.908Z,15.15
2022-12-22T04:54:45.852Z,12.90
2022-12-22T04:57:51.095Z,11.27
2022-12-22T05:00:56.227Z,10.73
2022-12-22T05:04:01.213Z,10.05
2022-12-22T05:07:07.716Z,7.97
2022-12-22T05:10:12.328Z,9.73
2022-12-22T05:13:17.285Z,7.68
2022-12-22T05:16:22.076Z,6.55
2022-12-22T05:19:30.741Z,5.60
2022-12-22T05:22:35.915Z,4.63
2022-12-22T05:25:40.931Z,4.22
2022-12-22T05:28:47.839Z,3.45
2022-12-22T05:31:52.669Z,2.40
2022-12-22T05:34:57.478Z,2.72
2022-12-22T05:38:02.259Z,2.08
2022-12-22T05:41:08.267Z,1.77
2022-12-22T05:44:13.293Z,2.05
2022-12-22T05:47:18.293Z,2.05
2022-12-22T05:50:25.097Z,1.60
2022-12-22T05:53:42.058Z,1.90
2022-12-22T05:56:46.904Z,1.95
2022-12-22T05:59:51.996Z,1.80
2022-12-22T06:02:57.282Z,1.73
2022-12-22T06:09:44.757Z,2.38
2022-12-22T06:12:49.396Z,1.98
2022-12-22T06:15:54.432Z,2.10
2022-12-22T06:18:59.104Z,2.22
2022-12-22T06:22:04.200Z,2.17
2022-12-22T06:25:15.379Z,2.20
2022-12-22T06:28:22.999Z,2.65
2022-12-22T06:31:28.108Z,3.05
2022-12-22T06:34:32.945Z,2.70
2022-12-22T06:37:38.033Z,2.00
2022-12-22T06:40:42.859Z,2.50
2022-12-22T06:43:47.968Z,2.25
2022-12-22T06:46:53.254Z,2.47
2022-12-22T06:49:58.225Z,2.50
2022-12-22T06:53:04.041Z,2.22
2022-12-22T06:56:08.836Z,2.53
2022-12-22T06:59:14.461Z,4.10
2022-12-22T07:02:19.951Z,3.90
2022-12-22T07:05:25.411Z,5.50
2022-12-22T07:08:30.369Z,3.75
2022-12-22T07:11:35.250Z,5.22
2022-12-22T07:14:39.825Z,4.22
2022-12-22T07:17:44.615Z,6.65
2022-12-22T07:20:49.694Z,3.85
2022-12-22T07:23:54.560Z,4.30
2022-12-22T07:26:59.580Z,3.28
2022-12-22T07:30:05.013Z,2.30
2022-12-22T07:33:09.847Z,2.40
2022-12-22T07:36:18.553Z,5.55
2022-12-22T07:39:23.620Z,3.08
2022-12-22T07:42:46.397Z,4.95
2022-12-22T07:45:51.451Z,4.13
2022-12-22T07:49:14.764Z,2.63
2022-12-22T07:52:19.588Z,3.50
2022-12-22T07:55:26.241Z,2.00
2022-12-22T07:58:31.291Z,1.73
2022-12-22T08:01:36.395Z,2.25
2022-12-22T08:04:41.309Z,3.30
2022-12-22T08:07:46.466Z,2.00
2022-12-22T08:10:51.695Z,2.28
2022-12-22T08:14:01.230Z,2.92
2022-12-22T08:17:06.941Z,2.03
2022-12-22T08:20:12.081Z,1.48
2022-12-22T08:23:17.948Z,1.70
2022-12-22T08:26:30.019Z,1.50
2022-12-22T08:29:45.298Z,3.15
2022-12-22T08:32:51.239Z,1.67
2022-12-22T08:35:59.799Z,6.35
2022-12-22T08:39:08.277Z,2.05
2022-12-22T08:42:16.312Z,3.95
2022-12-22T08:45:21.229Z,8.65
2022-12-22T08:48:26.022Z,3.97
2022-12-22T08:51:30.796Z,2.90
2022-12-22T08:54:35.880Z,1.83
2022-12-22T08:57:41.005Z,4.22
2022-12-22T09:00:45.878Z,1.90
2022-12-22T09:03:52.823Z,2.58
2022-12-22T09:06:57.719Z,2.97
2022-12-22T09:10:03.230Z,4.78
2022-12-22T09:13:07.991Z,3.75
2022-12-22T09:16:13.177Z,2.17
2022-12-22T09:19:18.301Z,4.68
2022-12-22T09:22:28.131Z,5.32
2022-12-22T09:25:35.058Z,3.80
2022-12-22T09:28:43.843Z,8.13
2022-12-22T09:31:53.286Z,11.02
2022-12-22T09:34:58.073Z,4.28
2022-12-22T09:38:03.291Z,6.13
2022-12-22T09:41:46.160Z,3.03
2022-12-22T09:44:52.267Z,6.05
2022-12-22T09:47:57.608Z,2.45
2022-12-22T09:51:05.021Z,1.75
2022-12-22T09:54:11.993Z,1.92
2022-12-22T09:57:16.994Z,1.65
2022-12-22T10:00:28.273Z,2.40
2022-12-22T10:03:46.686Z,4.03
2022-12-22T10:07:02.613Z,2.85
2022-12-22T10:10:27.872Z,8.48
2022-12-22T10:13:33.157Z,1.77
2022-12-22T10:16:38.198Z,2.65
2022-12-22T10:19:43.836Z,2.05
2022-12-22T10:23:00.240Z,2.00
2022-12-22T10:26:30.849Z,1.63
2022-12-22T10:29:36.893Z,1.75
2022-12-22T10:32:41.705Z,1.45
2022-12-22T10:35:52.928Z,1.55
2022-12-22T10:39:11.356Z,1.20
2022-12-22T10:42:16.638Z,1.27
2022-12-22T10:45:26.031Z,1.20
2022-12-22T10:48:35.152Z,1.30
2022-12-22T10:51:41.649Z,1.30
2022-12-22T10:54:47.167Z,1.55
2022-12-22T10:57:53.071Z,1.48
2022-12-22T11:01:04.713Z,1.52
2022-12-22T11:04:39.049Z,1.48
2022-12-22T11:07:47.168Z,1.63
2022-12-22T11:11:08.492Z,1.25
2022-12-22T11:14:40.037Z,1.50
2022-12-22T11:17:50.547Z,12.10
2022-12-22T11:21:54.963Z,2.17
2022-12-22T11:25:56.474Z,2.83
2022-12-22T11:29:19.194Z,1.48
2022-12-22T11:32:56.259Z,2.25
2022-12-22T11:36:11.333Z,1.80
2022-12-22T11:39:26.782Z,2.15
2022-12-22T11:43:06.588Z,3.10
2022-12-22T11:46:12.008Z,2.25
2022-12-22T11:49:55.535Z,2.70
2022-12-22T11:53:46.552Z,2.30
2022-12-22T11:57:02.569Z,5.93
2022-12-22T12:00:16.295Z,2.95
2022-12-22T12:04:01.744Z,7.07
2022-12-22T12:07:48.238Z,5.60
2022-12-22T12:11:18.426Z,2.83
2022-12-22T12:14:34.667Z,4.80
2022-12-22T12:18:26.243Z,2.60
2022-12-22T12:21:54.701Z,2.88
2022-12-22T12:25:25.561Z,10.02
2022-12-22T12:29:08.218Z,2.78
2022-12-22T12:32:29.643Z,2.80
2022-12-22T12:36:01.697Z,3.35
2022-12-22T12:39:57.450Z,7.35
2022-12-22T12:43:03.082Z,2.90
2022-12-22T12:46:52.619Z,3.08
2022-12-22T12:50:36.215Z,3.15
2022-12-22T12:54:23.258Z,2.78
2022-12-22T12:57:48.117Z,2.70
2022-12-22T13:00:58.724Z,2.78
2022-12-22T13:04:05.698Z,2.65
2022-12-22T13:07:10.996Z,2.45
2022-12-22T13:10:25.792Z,3.08
2022-12-22T13:14:02.913Z,2.40
2022-12-22T13:17:49.973Z,4.65
2022-12-22T13:24:49.164Z,5.38
2022-12-22T13:27:55.441Z,2.88
2022-12-22T13:31:07.594Z,4.38
2022-12-22T13:38:34.863Z,3.00
2022-12-22T13:42:29.620Z,4.50
2022-12-22T13:45:36.607Z,3.65
2022-12-22T13:48:45.844Z,3.40
2022-12-22T13:51:51.638Z,2.47
2022-12-22T13:54:57.208Z,2.42
2022-12-22T13:58:27.546Z,2.83
2022-12-22T14:01:33.370Z,2.58
2022-12-22T14:04:52.042Z,2.53
2022-12-22T14:08:03.260Z,2.10
2022-12-22T14:11:09.723Z,2.70
2022-12-22T14:14:23.636Z,2.55
2022-12-22T14:17:36.394Z,2.53
2022-12-22T14:20:42.701Z,2.40
2022-12-22T14:23:48.864Z,3.08
2022-12-22T14:26:54.310Z,2.20
2022-12-22T14:30:03.102Z,5.40
2022-12-22T14:33:23.687Z,3.88
2022-12-22T14:36:41.305Z,9.00
2022-12-22T14:39:56.355Z,9.00
2022-12-22T14:43:16.472Z,4.00
2022-12-22T14:46:21.799Z,2.83
2022-12-22T14:49:28.037Z,3.33
2022-12-22T14:52:59.058Z,3.75
2022-12-22T14:56:04.325Z,3.35
2022-12-22T14:59:22.242Z,2.97
2022-12-22T15:02:39.887Z,3.35
2022-12-22T15:05:45.530Z,3.30
2022-12-22T15:08:57.555Z,4.00
2022-12-22T15:12:07.194Z,4.22
2022-12-22T15:15:19.759Z,3.85
2022-12-22T15:18:27.421Z,7.22
2022-12-22T15:21:32.396Z,6.90
2022-12-22T15:24:37.722Z,4.95
2022-12-22T15:27:42.868Z,4.68
2022-12-22T15:30:47.699Z,3.47
2022-12-22T15:33:52.955Z,4.65
2022-12-22T15:36:58.201Z,7.13
2022-12-22T15:40:03.076Z,4.00
2022-12-22T15:43:22.275Z,4.20
2022-12-22T15:46:33.265Z,3.95
2022-12-22T15:49:38.722Z,4.82
2022-12-22T15:52:56.700Z,4.10
2022-12-22T15:56:01.998Z,4.63
2022-12-22T15:59:16.948Z,3.83
2022-12-22T16:02:22.190Z,4.28
2022-12-22T16:05:27.530Z,4.47
2022-12-22T16:08:37.771Z,4.18
2022-12-22T16:11:42.804Z,4.22
2022-12-22T16:14:51.125Z,3.00
2022-12-22T16:17:56.157Z,3.00
2022-12-22T16:21:07.974Z,3.13
2022-12-22T16:24:34.248Z,5.63
2022-12-22T16:27:39.460Z,5.03
2022-12-22T16:30:45.082Z,5.82
2022-12-22T16:33:50.808Z,3.55
2022-12-22T16:36:55.952Z,3.63
2022-12-22T16:40:01.284Z,3.08
2022-12-22T16:43:50.267Z,3.40
2022-12-22T16:46:56.348Z,3.13
2022-12-22T16:50:18.543Z,3.10
2022-12-22T16:53:24.232Z,3.35
2022-12-22T16:56:31.445Z,3.55
2022-12-22T16:59:36.606Z,3.45
2022-12-22T17:02:41.845Z,3.60
2022-12-22T17:05:50.810Z,3.63
2022-12-22T17:08:56.397Z,3.67
2022-12-22T17:12:01.471Z,2.70
2022-12-22T17:15:07.411Z,3.75
2022-12-22T17:18:18.964Z,3.50
2022-12-22T17:21:24.517Z,3.53
2022-12-22T17:24:29.921Z,4.18
2022-12-22T17:27:35.579Z,4.35
2022-12-22T17:30:40.823Z,3.97
2022-12-22T17:33:45.970Z,4.45
2022-12-22T17:36:51.756Z,4.18
2022-12-22T17:40:01.010Z,3.83
2022-12-22T17:43:06.084Z,4.13
2022-12-22T17:46:19.985Z,4.05
2022-12-22T17:49:25.234Z,4.18
2022-12-22T17:52:30.474Z,3.20
2022-12-22T17:59:01.051Z,5.55
2022-12-22T18:02:06.318Z,4.38
2022-12-22T18:05:14.216Z,4.82
2022-12-22T18:08:20.441Z,5.07
2022-12-22T18:11:25.842Z,4.78
2022-12-22T18:14:31.151Z,4.85
2022-12-22T18:17:36.575Z,4.28
2022-12-22T18:20:42.966Z,4.00
2022-12-22T18:23:50.719Z,7.55
2022-12-22T18:26:56.311Z,4.68
2022-12-22T18:30:01.584Z,5.60
2022-12-22T18:33:06.914Z,6.03
2022-12-22T18:36:29.230Z,6.03
2022-12-22T18:39:35.279Z,6.25
2022-12-22T18:42:40.265Z,7.68
2022-12-22T18:45:45.512Z,6.18
2022-12-22T18:48:50.643Z,6.65
2022-12-22T18:51:56.735Z,4.72
2022-12-22T18:55:01.953Z,5.40
2022-12-22T18:58:09.613Z,5.40
2022-12-22T19:01:26.463Z,4.53
2022-12-22T19:04:31.462Z,3.90
2022-12-22T19:07:36.440Z,4.65
2022-12-22T19:10:54.623Z,4.40
2022-12-22T19:13:59.779Z,3.67
2022-12-22T19:17:13.876Z,3.30
2022-12-22T19:20:21.319Z,4.40
2022-12-22T19:23:26.775Z,5.03
2022-12-22T19:26:31.813Z,5.65
2022-12-22T19:29:36.870Z,6.72
2022-12-22T19:32:47.717Z,6.85
2022-12-22T19:35:53.259Z,5.13
2022-12-22T19:39:04.756Z,6.25
2022-12-22T19:42:16.519Z,5.05
2022-12-22T19:45:28.782Z,4.13
2022-12-22T19:48:33.817Z,4.80
2022-12-22T19:51:38.823Z,3.67
2022-12-22T19:54:43.754Z,4.55
2022-12-22T19:57:50.842Z,4.47
2022-12-22T20:00:56.467Z,6.05
2022-12-22T20:04:01.954Z,4.32
2022-12-22T20:07:15.651Z,6.05
2022-12-22T20:10:21.663Z,4.80
2022-12-22T20:13:31.854Z,5.28
2022-12-22T20:16:36.927Z,4.13
2022-12-22T20:19:42.149Z,4.95
2022-12-22T20:22:50.946Z,4.05
2022-12-22T20:26:02.967Z,4.55
2022-12-22T20:29:12.881Z,13.20
2022-12-22T20:32:22.305Z,6.38
2022-12-22T20:35:32.314Z,6.13
2022-12-22T20:38:40.312Z,7.88
2022-12-22T20:41:52.246Z,6.35
2022-12-22T20:45:02.392Z,5.07
2022-12-22T20:48:19.567Z,6.60
2022-12-22T20:51:28.477Z,6.18
2022-12-22T20:54:33.885Z,9.20
2022-12-22T20:57:38.738Z,8.57
2022-12-22T21:00:43.479Z,7.20
2022-12-22T21:03:48.338Z,8.07
2022-12-22T21:06:55.763Z,8.07
2022-12-22T21:10:01.067Z,6.93
2022-12-22T21:13:05.771Z,6.13
2022-12-22T21:16:14.911Z,6.03
2022-12-22T21:19:20.087Z,5.40
2022-12-22T21:22:24.959Z,7.20
2022-12-22T21:25:29.866Z,9.07
2022-12-22T21:28:37.082Z,6.15
2022-12-22T21:31:41.900Z,4.40
2022-12-22T21:34:46.794Z,3.40
2022-12-22T21:37:52.594Z,3.80
2022-12-22T21:40:59.152Z,3.45
2022-12-22T21:44:04.632Z,3.97
2022-12-22T21:47:16.023Z,3.88
2022-12-22T21:50:33.173Z,3.53
2022-12-22T21:53:37.919Z,3.70
2022-12-22T21:56:42.772Z,3.53
2022-12-22T21:59:47.667Z,3.65
2022-12-22T22:02:53.586Z,3.80
2022-12-22T22:05:58.571Z,3.72
2022-12-22T22:09:05.214Z,4.72
2022-12-22T22:12:28.709Z,3.78
2022-12-22T22:15:34.850Z,3.90
2022-12-22T22:18:41.588Z,3.85
2022-12-22T22:21:47.518Z,3.80
2022-12-22T22:24:52.487Z,3.97
2022-12-22T22:28:00.530Z,3.33
2022-12-22T22:31:10.859Z,3.17
2022-12-22T22:34:16.062Z,4.22
2022-12-22T22:37:21.293Z,3.80
2022-12-22T22:40:26.395Z,3.38
2022-12-22T22:43:31.451Z,3.60
2022-12-22T22:46:36.300Z,3.50
2022-12-22T22:49:41.470Z,3.47
2022-12-22T22:52:47.033Z,3.47
2022-12-22T22:55:52.163Z,3.10
2022-12-22T22:58:59.366Z,3.17
2022-12-22T23:02:04.669Z,3.55
2022-12-22T23:05:15.414Z,3.38
2022-12-22T23:08:23.859Z,3.63
2022-12-22T23:11:29.164Z,3.30
2022-12-22T23:14:33.858Z,3.28
2022-12-22T23:17:39.039Z,3.53
2022-12-22T23:20:44.877Z,3.35
2022-12-22T23:23:57.745Z,3.55
2022-12-22T23:27:02.470Z,3.50
2022-12-22T23:30:08.365Z,3.30
2022-12-22T23:33:13.111Z,3.25
2022-12-22T23:36:18.202Z,3.45
2022-12-22T23:39:23.150Z,3.38
2022-12-22T23:42:28.128Z,3.22
2022-12-22T23:45:33.156Z,3.40
2022-12-22T23:48:39.707Z,3.22
2022-12-22T23:51:44.658Z,3.25
2022-12-22T23:54:49.770Z,3.53
2022-12-22T23:57:54.586Z,3.03
